BLA211 LRBC-LIME
Flight info
| Callsign | BLA211 |
|---|---|
| Flight time | N/A |
| Altitude | 36000 |
| Route | BUCSA Z650 TOMET DCT ELROM Y572 BUDOP DCT GOTAR DCT DETSA M984 LUSIL T772 EKLIB |
| Aircraft | B738/M-SDE2E3FGHIRWXY/LB1 |
Departure
| Time | N/A |
|---|---|
| Airport | Bacău George Enescu International Airport (LRBC) |
Arrival
| Time | 2026-04-30 19:11 |
|---|---|
| Airport | Il Caravaggio International Airport (LIME) |
| Time | Latitude | Longitude | Altitude | Speed | Heading |
|---|---|---|---|---|---|
| 2026-04-30 17:39 | 46.69494 | 23.55288 | 36279 ft | 429 kts | 279° |
| 2026-04-30 17:42 | 46.73397 | 23.12292 | 36281 ft | 439 kts | 279° |
| 2026-04-30 17:43 | 46.73872 | 22.90135 | 36302 ft | 439 kts | 270° |
| 2026-04-30 17:44 | 46.73026 | 22.63464 | 36300 ft | 438 kts | 270° |
| 2026-04-30 17:47 | 46.71669 | 22.23493 | 36278 ft | 440 kts | 269° |
| 2026-04-30 17:48 | 46.70509 | 21.92293 | 36284 ft | 443 kts | 269° |
| 2026-04-30 17:50 | 46.69068 | 21.56316 | 36291 ft | 446 kts | 269° |
| 2026-04-30 17:52 | 46.70404 | 21.29492 | 36299 ft | 445 kts | 279° |
| 2026-04-30 17:54 | 46.73623 | 20.89005 | 36309 ft | 448 kts | 278° |
| 2026-04-30 17:56 | 46.76375 | 20.52394 | 36319 ft | 462 kts | 278° |
| 2026-04-30 17:58 | 46.78394 | 20.24433 | 36323 ft | 462 kts | 278° |
| 2026-04-30 18:00 | 46.80872 | 19.88740 | 36326 ft | 461 kts | 278° |
| 2026-04-30 18:01 | 46.82428 | 19.65463 | 36325 ft | 460 kts | 278° |
| 2026-04-30 18:02 | 46.84231 | 19.37530 | 36320 ft | 461 kts | 278° |
| 2026-04-30 18:04 | 46.85965 | 19.09585 | 36326 ft | 462 kts | 278° |
| 2026-04-30 18:06 | 46.88184 | 18.72088 | 36335 ft | 463 kts | 278° |
| 2026-04-30 18:08 | 46.90029 | 18.39174 | 36337 ft | 465 kts | 277° |
| 2026-04-30 18:10 | 46.92026 | 18.01475 | 36347 ft | 466 kts | 277° |
| 2026-04-30 18:11 | 46.93676 | 17.68349 | 36347 ft | 467 kts | 277° |
| 2026-04-30 18:13 | 46.94799 | 17.44639 | 36352 ft | 468 kts | 277° |
| 2026-04-30 18:14 | 46.95872 | 17.20911 | 36354 ft | 468 kts | 277° |
| 2026-04-30 18:15 | 46.97099 | 16.92351 | 36360 ft | 469 kts | 277° |
| 2026-04-30 18:16 | 46.97878 | 16.73309 | 36355 ft | 469 kts | 277° |
| 2026-04-30 18:17 | 46.98257 | 16.63731 | 36362 ft | 470 kts | 277° |
| 2026-04-30 18:18 | 46.98809 | 16.49431 | 36359 ft | 470 kts | 277° |
| 2026-04-30 18:18 | 46.99170 | 16.39820 | 36363 ft | 470 kts | 277° |
| 2026-04-30 18:19 | 46.99521 | 16.30290 | 36365 ft | 470 kts | 277° |
| 2026-04-30 18:19 | 46.99815 | 16.20732 | 36357 ft | 472 kts | 273° |
| 2026-04-30 18:20 | 46.99569 | 16.11039 | 36366 ft | 474 kts | 270° |
| 2026-04-30 18:20 | 46.99160 | 16.01374 | 36367 ft | 474 kts | 270° |
| 2026-04-30 18:21 | 46.98776 | 15.91759 | 36358 ft | 475 kts | 270° |
| 2026-04-30 18:21 | 46.98428 | 15.82274 | 36357 ft | 475 kts | 271° |
| 2026-04-30 18:22 | 46.98081 | 15.72615 | 36352 ft | 475 kts | 271° |
| 2026-04-30 18:22 | 46.97547 | 15.58145 | 36348 ft | 475 kts | 271° |
| 2026-04-30 18:23 | 46.97178 | 15.48447 | 36342 ft | 476 kts | 271° |
| 2026-04-30 18:23 | 46.96800 | 15.38773 | 36342 ft | 476 kts | 271° |
| 2026-04-30 18:24 | 46.96216 | 15.24218 | 36349 ft | 477 kts | 270° |
| 2026-04-30 18:25 | 46.95821 | 15.14598 | 36356 ft | 477 kts | 270° |
| 2026-04-30 18:25 | 46.95204 | 15.00007 | 36361 ft | 478 kts | 270° |
| 2026-04-30 18:26 | 46.94572 | 14.85471 | 36342 ft | 477 kts | 270° |
| 2026-04-30 18:27 | 46.93921 | 14.70941 | 36339 ft | 478 kts | 270° |
| 2026-04-30 18:28 | 46.93254 | 14.56459 | 36341 ft | 476 kts | 270° |
| 2026-04-30 18:28 | 46.92568 | 14.41962 | 36340 ft | 477 kts | 270° |
| 2026-04-30 18:29 | 46.91625 | 14.22616 | 36335 ft | 477 kts | 270° |
| 2026-04-30 18:30 | 46.90645 | 14.03223 | 36339 ft | 477 kts | 270° |
| 2026-04-30 18:31 | 46.89893 | 13.88754 | 36333 ft | 477 kts | 270° |
| 2026-04-30 18:32 | 46.89122 | 13.74256 | 36317 ft | 478 kts | 270° |
| 2026-04-30 18:33 | 46.88326 | 13.59697 | 36317 ft | 478 kts | 270° |
| 2026-04-30 18:33 | 46.87514 | 13.45144 | 36308 ft | 479 kts | 270° |
| 2026-04-30 18:34 | 46.86685 | 13.30654 | 36306 ft | 478 kts | 270° |
| 2026-04-30 18:35 | 46.86124 | 13.20999 | 36298 ft | 479 kts | 270° |
| 2026-04-30 18:35 | 46.85548 | 13.11230 | 36290 ft | 480 kts | 270° |
| 2026-04-30 18:36 | 46.84674 | 12.96700 | 36290 ft | 479 kts | 270° |
| 2026-04-30 18:37 | 46.83781 | 12.82161 | 36276 ft | 478 kts | 270° |
| 2026-04-30 18:37 | 46.83179 | 12.72532 | 36275 ft | 477 kts | 270° |
| 2026-04-30 18:38 | 46.82568 | 12.62872 | 36243 ft | 477 kts | 269° |
| 2026-04-30 18:38 | 46.81950 | 12.53241 | 36255 ft | 476 kts | 269° |
| 2026-04-30 18:39 | 46.81329 | 12.43681 | 36278 ft | 474 kts | 269° |
| 2026-04-30 18:39 | 46.80701 | 12.34123 | 36288 ft | 473 kts | 269° |
| 2026-04-30 18:40 | 46.79185 | 12.24662 | 36268 ft | 486 kts | 251° |
| 2026-04-30 18:40 | 46.76140 | 12.15766 | 36268 ft | 492 kts | 246° |
| 2026-04-30 18:41 | 46.72929 | 12.06929 | 36267 ft | 493 kts | 246° |
| 2026-04-30 18:41 | 46.69774 | 11.98055 | 36238 ft | 492 kts | 246° |
| 2026-04-30 18:42 | 46.67186 | 11.90699 | 36230 ft | 491 kts | 246° |
| 2026-04-30 18:42 | 46.63019 | 11.78880 | 36219 ft | 489 kts | 246° |
| 2026-04-30 18:45 | 46.45928 | 11.30876 | 36170 ft | 485 kts | 247° |
| 2026-04-30 18:46 | 46.42915 | 11.22149 | 36178 ft | 484 kts | 248° |
| 2026-04-30 18:46 | 46.39932 | 11.13395 | 36284 ft | 483 kts | 248° |
| 2026-04-30 18:47 | 46.36936 | 11.04678 | 36295 ft | 483 kts | 247° |
| 2026-04-30 18:47 | 46.33946 | 10.96040 | 36287 ft | 483 kts | 247° |
| 2026-04-30 18:48 | 46.30933 | 10.87359 | 36294 ft | 482 kts | 247° |
| 2026-04-30 18:48 | 46.27913 | 10.78690 | 36283 ft | 482 kts | 247° |
| 2026-04-30 18:48 | 46.26403 | 10.74362 | 36085 ft | 483 kts | 247° |
| 2026-04-30 18:49 | 46.24890 | 10.70027 | 35451 ft | 482 kts | 247° |
| 2026-04-30 18:49 | 46.23384 | 10.65724 | 34948 ft | 479 kts | 247° |
| 2026-04-30 18:49 | 46.21877 | 10.61423 | 34413 ft | 478 kts | 248° |
| 2026-04-30 18:49 | 46.20383 | 10.57166 | 33819 ft | 475 kts | 247° |
| 2026-04-30 18:50 | 46.18889 | 10.52913 | 33252 ft | 472 kts | 247° |
| 2026-04-30 18:50 | 46.17407 | 10.48697 | 32666 ft | 471 kts | 247° |
| 2026-04-30 18:50 | 46.15927 | 10.44495 | 32091 ft | 469 kts | 246° |
| 2026-04-30 18:50 | 46.14446 | 10.40301 | 31512 ft | 467 kts | 246° |
| 2026-04-30 18:51 | 46.12970 | 10.36128 | 30981 ft | 465 kts | 246° |
| 2026-04-30 18:51 | 46.11511 | 10.32005 | 30433 ft | 464 kts | 246° |
| 2026-04-30 18:51 | 46.10045 | 10.27867 | 29832 ft | 462 kts | 246° |
| 2026-04-30 18:51 | 46.08585 | 10.23747 | 29188 ft | 460 kts | 246° |
| 2026-04-30 18:52 | 46.07131 | 10.19653 | 28602 ft | 457 kts | 246° |
| 2026-04-30 18:52 | 46.05700 | 10.15637 | 28013 ft | 455 kts | 245° |
| 2026-04-30 18:52 | 46.03956 | 10.11767 | 27393 ft | 456 kts | 232° |
| 2026-04-30 18:52 | 46.01740 | 10.08596 | 26845 ft | 456 kts | 219° |
| 2026-04-30 18:53 | 45.99210 | 10.05880 | 26309 ft | 453 kts | 217° |
| 2026-04-30 18:53 | 45.96668 | 10.03207 | 25781 ft | 451 kts | 217° |
| 2026-04-30 18:53 | 45.94163 | 10.00527 | 25222 ft | 449 kts | 218° |
| 2026-04-30 18:53 | 45.91679 | 9.97816 | 24706 ft | 447 kts | 219° |
| 2026-04-30 18:54 | 45.89213 | 9.95101 | 24186 ft | 445 kts | 219° |
| 2026-04-30 18:54 | 45.86802 | 9.92462 | 23644 ft | 443 kts | 218° |
| 2026-04-30 18:54 | 45.84304 | 9.89753 | 23040 ft | 441 kts | 218° |
| 2026-04-30 18:54 | 45.81870 | 9.87112 | 22434 ft | 439 kts | 218° |
| 2026-04-30 18:55 | 45.79464 | 9.84495 | 21855 ft | 436 kts | 219° |
| 2026-04-30 18:55 | 45.74677 | 9.79290 | 20743 ft | 431 kts | 219° |
| 2026-04-30 18:55 | 45.72298 | 9.76711 | 20199 ft | 428 kts | 219° |
| 2026-04-30 18:56 | 45.67564 | 9.71590 | 19127 ft | 422 kts | 219° |
| 2026-04-30 18:56 | 45.65373 | 9.68839 | 18596 ft | 417 kts | 231° |
| 2026-04-30 18:56 | 45.63624 | 9.65630 | 18020 ft | 402 kts | 237° |
| 2026-04-30 18:57 | 45.60517 | 9.59255 | 16783 ft | 382 kts | 236° |
| 2026-04-30 18:57 | 45.58945 | 9.56234 | 16198 ft | 374 kts | 234° |
| 2026-04-30 18:57 | 45.57372 | 9.53330 | 15662 ft | 367 kts | 234° |
| 2026-04-30 18:58 | 45.54299 | 9.47741 | 14600 ft | 354 kts | 233° |
| 2026-04-30 18:58 | 45.52771 | 9.44969 | 14068 ft | 349 kts | 233° |
| 2026-04-30 18:58 | 45.51299 | 9.42305 | 13498 ft | 344 kts | 231° |
| 2026-04-30 18:59 | 45.47363 | 9.38796 | 12423 ft | 335 kts | 191° |
| 2026-04-30 19:00 | 45.40934 | 9.40815 | 10811 ft | 315 kts | 145° |
| 2026-04-30 19:00 | 45.39250 | 9.42741 | 10255 ft | 309 kts | 128° |
| 2026-04-30 19:00 | 45.37639 | 9.48188 | 9124 ft | 298 kts | 95° |
| 2026-04-30 19:01 | 45.38793 | 9.53504 | 8268 ft | 281 kts | 53° |
| 2026-04-30 19:01 | 45.39985 | 9.55711 | 7929 ft | 275 kts | 52° |
| 2026-04-30 19:02 | 45.42304 | 9.59828 | 7173 ft | 261 kts | 51° |
| 2026-04-30 19:02 | 45.44542 | 9.63826 | 6421 ft | 256 kts | 52° |
| 2026-04-30 19:03 | 45.46748 | 9.67803 | 5647 ft | 255 kts | 52° |
| 2026-04-30 19:03 | 45.48933 | 9.71761 | 4891 ft | 252 kts | 52° |
| 2026-04-30 19:04 | 45.51025 | 9.75563 | 4198 ft | 237 kts | 53° |
| 2026-04-30 19:04 | 45.52991 | 9.79143 | 3512 ft | 222 kts | 53° |
| 2026-04-30 19:05 | 45.54763 | 9.82376 | 3468 ft | 197 kts | 54° |
| 2026-04-30 19:05 | 45.56433 | 9.85426 | 3455 ft | 185 kts | 54° |
| 2026-04-30 19:06 | 45.57910 | 9.88124 | 3455 ft | 166 kts | 54° |
| 2026-04-30 19:06 | 45.58620 | 9.89425 | 3490 ft | 165 kts | 54° |
| 2026-04-30 19:06 | 45.60078 | 9.92066 | 3465 ft | 168 kts | 47° |
| 2026-04-30 19:07 | 45.62114 | 9.91837 | 3480 ft | 166 kts | 304° |
| 2026-04-30 19:07 | 45.62688 | 9.90492 | 3352 ft | 157 kts | 303° |
| 2026-04-30 19:08 | 45.63568 | 9.87738 | 2959 ft | 150 kts | 289° |
| 2026-04-30 19:08 | 45.64166 | 9.84883 | 2569 ft | 150 kts | 283° |
| 2026-04-30 19:08 | 45.64433 | 9.83440 | 2366 ft | 150 kts | 283° |
| 2026-04-30 19:09 | 45.64957 | 9.80590 | 1961 ft | 149 kts | 284° |
| 2026-04-30 19:09 | 45.65222 | 9.79155 | 1761 ft | 148 kts | 284° |
| 2026-04-30 19:09 | 45.65481 | 9.77740 | 1528 ft | 147 kts | 283° |
| 2026-04-30 19:10 | 45.65987 | 9.74977 | 1160 ft | 143 kts | 283° |
| 2026-04-30 19:10 | 45.66492 | 9.72277 | 810 ft | 133 kts | 284° |
| 2026-04-30 19:11 | 45.66708 | 9.71112 | 786 ft | 104 kts | 284° |
| 2026-04-30 19:11 | 45.66880 | 9.70174 | 786 ft | 11 kts | 284° |
| 2026-04-30 19:11 | 45.66863 | 9.70075 | 786 ft | 13 kts | 206° |
| 2026-04-30 19:12 | 45.66785 | 9.70104 | 786 ft | 6 kts | 155° |
| 2026-04-30 19:12 | 45.66721 | 9.70142 | 786 ft | 11 kts | 171° |
| 2026-04-30 19:12 | 45.66659 | 9.70126 | 786 ft | 7 kts | 194° |
| 2026-04-30 19:13 | 45.66625 | 9.70114 | 786 ft | 0 kts | 194° |